sensor_id;sensor_type;location;lat;lon;timestamp;P1;durP1;ratioP1;P2;durP2;ratioP2
78871;SDS011;68247;43.514;1.502;2023-09-07T00:00:19;5.93;;;2.70;;
78871;SDS011;68247;43.514;1.502;2023-09-07T00:02:45;4.40;;;2.60;;
78871;SDS011;68247;43.514;1.502;2023-09-07T00:05:11;3.65;;;2.40;;
78871;SDS011;68247;43.514;1.502;2023-09-07T00:07:38;5.67;;;2.73;;
78871;SDS011;68247;43.514;1.502;2023-09-07T00:10:04;5.45;;;2.60;;
78871;SDS011;68247;43.514;1.502;2023-09-07T00:12:30;4.88;;;2.47;;
78871;SDS011;68247;43.514;1.502;2023-09-07T00:14:55;4.60;;;2.57;;
78871;SDS011;68247;43.514;1.502;2023-09-07T00:17:21;4.23;;;2.50;;
78871;SDS011;68247;43.514;1.502;2023-09-07T00:19:46;6.60;;;2.28;;
78871;SDS011;68247;43.514;1.502;2023-09-07T00:22:14;4.25;;;2.60;;
78871;SDS011;68247;43.514;1.502;2023-09-07T00:24:40;5.10;;;2.50;;
78871;SDS011;68247;43.514;1.502;2023-09-07T00:27:05;4.22;;;2.40;;
78871;SDS011;68247;43.514;1.502;2023-09-07T00:29:32;4.30;;;2.30;;
78871;SDS011;68247;43.514;1.502;2023-09-07T00:31:59;4.90;;;2.50;;
78871;SDS011;68247;43.514;1.502;2023-09-07T00:34:25;6.47;;;2.80;;
78871;SDS011;68247;43.514;1.502;2023-09-07T00:36:50;4.10;;;2.50;;
78871;SDS011;68247;43.514;1.502;2023-09-07T00:39:15;5.27;;;3.00;;
78871;SDS011;68247;43.514;1.502;2023-09-07T00:41:41;5.33;;;2.60;;
78871;SDS011;68247;43.514;1.502;2023-09-07T00:44:06;4.30;;;2.60;;
78871;SDS011;68247;43.514;1.502;2023-09-07T00:46:31;4.45;;;2.28;;
78871;SDS011;68247;43.514;1.502;2023-09-07T00:48:57;4.67;;;2.67;;
78871;SDS011;68247;43.514;1.502;2023-09-07T00:51:22;5.77;;;2.67;;
78871;SDS011;68247;43.514;1.502;2023-09-07T00:53:49;6.38;;;2.67;;
78871;SDS011;68247;43.514;1.502;2023-09-07T00:56:14;4.20;;;2.78;;
78871;SDS011;68247;43.514;1.502;2023-09-07T00:58:40;4.43;;;2.42;;
78871;SDS011;68247;43.514;1.502;2023-09-07T01:01:06;5.60;;;2.67;;
78871;SDS011;68247;43.514;1.502;2023-09-07T01:03:32;4.17;;;2.50;;
78871;SDS011;68247;43.514;1.502;2023-09-07T01:08:42;5.20;;;2.53;;
78871;SDS011;68247;43.514;1.502;2023-09-07T01:11:14;4.15;;;2.78;;
78871;SDS011;68247;43.514;1.502;2023-09-07T01:13:40;4.32;;;2.50;;
78871;SDS011;68247;43.514;1.502;2023-09-07T01:16:06;5.55;;;2.60;;
78871;SDS011;68247;43.514;1.502;2023-09-07T01:18:32;5.45;;;2.80;;
78871;SDS011;68247;43.514;1.502;2023-09-07T01:20:58;4.17;;;2.30;;
78871;SDS011;68247;43.514;1.502;2023-09-07T01:23:23;4.68;;;2.75;;
78871;SDS011;68247;43.514;1.502;2023-09-07T01:25:49;4.63;;;2.53;;
78871;SDS011;68247;43.514;1.502;2023-09-07T01:28:15;5.17;;;2.60;;
78871;SDS011;68247;43.514;1.502;2023-09-07T01:30:40;4.43;;;2.58;;
78871;SDS011;68247;43.514;1.502;2023-09-07T01:33:06;4.70;;;2.88;;
78871;SDS011;68247;43.514;1.502;2023-09-07T01:35:33;4.40;;;2.50;;
78871;SDS011;68247;43.514;1.502;2023-09-07T01:37:59;4.78;;;2.70;;
78871;SDS011;68247;43.514;1.502;2023-09-07T01:40:25;4.93;;;2.70;;
78871;SDS011;68247;43.514;1.502;2023-09-07T01:42:50;3.90;;;2.60;;
78871;SDS011;68247;43.514;1.502;2023-09-07T01:45:16;6.90;;;2.60;;
78871;SDS011;68247;43.514;1.502;2023-09-07T01:47:41;6.07;;;2.70;;
78871;SDS011;68247;43.514;1.502;2023-09-07T01:50:06;4.00;;;2.30;;
78871;SDS011;68247;43.514;1.502;2023-09-07T01:52:32;5.72;;;2.60;;
78871;SDS011;68247;43.514;1.502;2023-09-07T01:54:57;4.77;;;2.50;;
78871;SDS011;68247;43.514;1.502;2023-09-07T01:57:23;4.47;;;2.80;;
78871;SDS011;68247;43.514;1.502;2023-09-07T01:59:48;4.57;;;2.70;;
78871;SDS011;68247;43.514;1.502;2023-09-07T02:02:14;4.20;;;2.77;;
78871;SDS011;68247;43.514;1.502;2023-09-07T02:04:39;5.33;;;2.73;;
78871;SDS011;68247;43.514;1.502;2023-09-07T02:07:06;5.70;;;2.55;;
78871;SDS011;68247;43.514;1.502;2023-09-07T02:09:31;4.43;;;2.83;;
78871;SDS011;68247;43.514;1.502;2023-09-07T02:11:57;5.15;;;2.70;;
78871;SDS011;68247;43.514;1.502;2023-09-07T02:14:23;6.37;;;2.83;;
78871;SDS011;68247;43.514;1.502;2023-09-07T02:16:48;4.23;;;2.70;;
78871;SDS011;68247;43.514;1.502;2023-09-07T02:19:13;5.32;;;2.70;;
78871;SDS011;68247;43.514;1.502;2023-09-07T02:21:39;5.27;;;2.70;;
78871;SDS011;68247;43.514;1.502;2023-09-07T02:24:04;5.47;;;2.73;;
78871;SDS011;68247;43.514;1.502;2023-09-07T02:26:30;5.68;;;2.65;;
78871;SDS011;68247;43.514;1.502;2023-09-07T02:28:55;4.30;;;2.50;;
78871;SDS011;68247;43.514;1.502;2023-09-07T02:31:21;5.63;;;3.07;;
78871;SDS011;68247;43.514;1.502;2023-09-07T02:33:46;5.30;;;2.60;;
78871;SDS011;68247;43.514;1.502;2023-09-07T02:36:12;4.13;;;2.60;;
78871;SDS011;68247;43.514;1.502;2023-09-07T02:38:37;4.83;;;2.97;;
78871;SDS011;68247;43.514;1.502;2023-09-07T02:41:02;4.77;;;2.87;;
78871;SDS011;68247;43.514;1.502;2023-09-07T02:43:28;5.43;;;2.77;;
78871;SDS011;68247;43.514;1.502;2023-09-07T02:45:53;5.70;;;2.92;;
78871;SDS011;68247;43.514;1.502;2023-09-07T02:48:19;3.93;;;2.50;;
78871;SDS011;68247;43.514;1.502;2023-09-07T02:50:44;4.43;;;2.40;;
78871;SDS011;68247;43.514;1.502;2023-09-07T02:53:13;4.80;;;2.70;;
78871;SDS011;68247;43.514;1.502;2023-09-07T02:55:39;4.30;;;2.60;;
78871;SDS011;68247;43.514;1.502;2023-09-07T02:58:05;4.25;;;2.65;;
78871;SDS011;68247;43.514;1.502;2023-09-07T03:00:30;5.30;;;3.00;;
78871;SDS011;68247;43.514;1.502;2023-09-07T03:02:56;4.72;;;2.70;;
78871;SDS011;68247;43.514;1.502;2023-09-07T03:05:21;4.40;;;2.70;;
78871;SDS011;68247;43.514;1.502;2023-09-07T03:07:47;4.80;;;2.60;;
78871;SDS011;68247;43.514;1.502;2023-09-07T03:10:13;3.93;;;2.40;;
78871;SDS011;68247;43.514;1.502;2023-09-07T03:12:38;4.00;;;2.58;;
78871;SDS011;68247;43.514;1.502;2023-09-07T03:15:04;4.22;;;2.70;;
78871;SDS011;68247;43.514;1.502;2023-09-07T03:17:30;5.60;;;2.80;;
78871;SDS011;68247;43.514;1.502;2023-09-07T03:19:55;5.72;;;3.03;;
78871;SDS011;68247;43.514;1.502;2023-09-07T03:22:22;4.63;;;2.80;;
78871;SDS011;68247;43.514;1.502;2023-09-07T03:24:49;4.55;;;2.85;;
78871;SDS011;68247;43.514;1.502;2023-09-07T03:27:15;5.05;;;2.67;;
78871;SDS011;68247;43.514;1.502;2023-09-07T03:29:40;5.83;;;2.57;;
78871;SDS011;68247;43.514;1.502;2023-09-07T03:32:06;6.10;;;2.97;;
78871;SDS011;68247;43.514;1.502;2023-09-07T03:34:33;6.53;;;2.72;;
78871;SDS011;68247;43.514;1.502;2023-09-07T03:36:58;4.70;;;2.87;;
78871;SDS011;68247;43.514;1.502;2023-09-07T03:39:24;5.63;;;2.75;;
78871;SDS011;68247;43.514;1.502;2023-09-07T03:41:49;4.57;;;2.63;;
78871;SDS011;68247;43.514;1.502;2023-09-07T03:44:14;4.40;;;3.00;;
78871;SDS011;68247;43.514;1.502;2023-09-07T03:46:40;4.63;;;3.10;;
78871;SDS011;68247;43.514;1.502;2023-09-07T03:49:06;4.35;;;2.70;;
78871;SDS011;68247;43.514;1.502;2023-09-07T03:51:32;5.90;;;2.70;;
78871;SDS011;68247;43.514;1.502;2023-09-07T03:53:58;5.10;;;2.70;;
78871;SDS011;68247;43.514;1.502;2023-09-07T03:56:24;4.53;;;2.58;;
78871;SDS011;68247;43.514;1.502;2023-09-07T03:58:49;4.50;;;2.70;;
78871;SDS011;68247;43.514;1.502;2023-09-07T04:01:15;6.33;;;2.70;;
78871;SDS011;68247;43.514;1.502;2023-09-07T04:03:40;4.82;;;2.78;;
78871;SDS011;68247;43.514;1.502;2023-09-07T04:06:06;5.13;;;2.70;;
78871;SDS011;68247;43.514;1.502;2023-09-07T04:08:32;4.28;;;2.70;;
78871;SDS011;68247;43.514;1.502;2023-09-07T04:10:57;5.47;;;2.60;;
78871;SDS011;68247;43.514;1.502;2023-09-07T04:13:23;5.63;;;3.00;;
78871;SDS011;68247;43.514;1.502;2023-09-07T04:15:48;4.87;;;2.83;;
78871;SDS011;68247;43.514;1.502;2023-09-07T04:18:14;5.57;;;2.72;;
78871;SDS011;68247;43.514;1.502;2023-09-07T04:20:43;6.63;;;2.90;;
78871;SDS011;68247;43.514;1.502;2023-09-07T04:23:08;5.40;;;2.55;;
78871;SDS011;68247;43.514;1.502;2023-09-07T04:25:34;4.65;;;2.83;;
78871;SDS011;68247;43.514;1.502;2023-09-07T04:27:59;4.97;;;2.97;;
78871;SDS011;68247;43.514;1.502;2023-09-07T04:30:25;6.00;;;2.80;;
78871;SDS011;68247;43.514;1.502;2023-09-07T04:32:50;5.03;;;2.72;;
78871;SDS011;68247;43.514;1.502;2023-09-07T04:35:16;4.93;;;2.80;;
78871;SDS011;68247;43.514;1.502;2023-09-07T04:37:42;4.47;;;2.60;;
78871;SDS011;68247;43.514;1.502;2023-09-07T04:40:08;4.38;;;2.70;;
78871;SDS011;68247;43.514;1.502;2023-09-07T04:42:34;5.55;;;2.88;;
78871;SDS011;68247;43.514;1.502;2023-09-07T04:44:59;5.57;;;2.97;;
78871;SDS011;68247;43.514;1.502;2023-09-07T04:47:25;5.13;;;3.03;;
78871;SDS011;68247;43.514;1.502;2023-09-07T04:49:50;5.13;;;3.00;;
78871;SDS011;68247;43.514;1.502;2023-09-07T04:52:16;5.60;;;3.25;;
78871;SDS011;68247;43.514;1.502;2023-09-07T04:54:42;5.53;;;2.90;;
78871;SDS011;68247;43.514;1.502;2023-09-07T04:57:08;5.45;;;2.83;;
78871;SDS011;68247;43.514;1.502;2023-09-07T04:59:33;6.33;;;2.97;;
78871;SDS011;68247;43.514;1.502;2023-09-07T05:01:59;5.17;;;2.70;;
78871;SDS011;68247;43.514;1.502;2023-09-07T05:04:26;5.80;;;2.85;;
78871;SDS011;68247;43.514;1.502;2023-09-07T05:06:52;4.27;;;2.77;;
78871;SDS011;68247;43.514;1.502;2023-09-07T05:09:17;5.33;;;2.90;;
78871;SDS011;68247;43.514;1.502;2023-09-07T05:11:42;6.40;;;3.17;;
78871;SDS011;68247;43.514;1.502;2023-09-07T05:14:08;5.83;;;3.20;;
78871;SDS011;68247;43.514;1.502;2023-09-07T05:16:33;4.53;;;2.80;;
78871;SDS011;68247;43.514;1.502;2023-09-07T05:18:59;4.60;;;2.93;;
78871;SDS011;68247;43.514;1.502;2023-09-07T05:21:24;5.20;;;2.87;;
78871;SDS011;68247;43.514;1.502;2023-09-07T05:23:49;5.43;;;3.00;;
78871;SDS011;68247;43.514;1.502;2023-09-07T05:26:20;5.20;;;3.20;;
78871;SDS011;68247;43.514;1.502;2023-09-07T05:28:46;7.18;;;3.25;;
78871;SDS011;68247;43.514;1.502;2023-09-07T05:31:11;5.97;;;2.77;;
78871;SDS011;68247;43.514;1.502;2023-09-07T05:33:36;5.50;;;3.10;;
78871;SDS011;68247;43.514;1.502;2023-09-07T05:36:02;4.82;;;2.72;;
78871;SDS011;68247;43.514;1.502;2023-09-07T05:38:27;5.37;;;2.77;;
78871;SDS011;68247;43.514;1.502;2023-09-07T05:40:53;6.83;;;3.10;;
78871;SDS011;68247;43.514;1.502;2023-09-07T05:43:19;5.72;;;3.28;;
78871;SDS011;68247;43.514;1.502;2023-09-07T05:45:45;5.45;;;2.97;;
78871;SDS011;68247;43.514;1.502;2023-09-07T05:48:10;6.67;;;2.73;;
78871;SDS011;68247;43.514;1.502;2023-09-07T05:50:36;6.30;;;3.37;;
78871;SDS011;68247;43.514;1.502;2023-09-07T05:53:03;7.43;;;2.78;;
78871;SDS011;68247;43.514;1.502;2023-09-07T05:55:29;6.93;;;3.10;;
78871;SDS011;68247;43.514;1.502;2023-09-07T05:57:55;5.50;;;3.30;;
78871;SDS011;68247;43.514;1.502;2023-09-07T06:00:20;5.70;;;3.10;;
78871;SDS011;68247;43.514;1.502;2023-09-07T06:02:46;5.10;;;3.03;;
78871;SDS011;68247;43.514;1.502;2023-09-07T06:05:12;9.48;;;3.30;;
78871;SDS011;68247;43.514;1.502;2023-09-07T06:07:37;6.50;;;3.20;;
78871;SDS011;68247;43.514;1.502;2023-09-07T06:10:03;4.40;;;2.80;;
78871;SDS011;68247;43.514;1.502;2023-09-07T06:12:30;6.75;;;2.97;;
78871;SDS011;68247;43.514;1.502;2023-09-07T06:14:56;5.93;;;3.03;;
78871;SDS011;68247;43.514;1.502;2023-09-07T06:17:21;5.22;;;2.90;;
78871;SDS011;68247;43.514;1.502;2023-09-07T06:19:47;4.93;;;2.63;;
78871;SDS011;68247;43.514;1.502;2023-09-07T06:22:12;6.07;;;2.97;;
78871;SDS011;68247;43.514;1.502;2023-09-07T06:24:38;6.17;;;3.23;;
78871;SDS011;68247;43.514;1.502;2023-09-07T06:27:03;6.03;;;3.00;;
78871;SDS011;68247;43.514;1.502;2023-09-07T06:29:29;5.27;;;2.83;;
78871;SDS011;68247;43.514;1.502;2023-09-07T06:31:54;4.30;;;2.80;;
78871;SDS011;68247;43.514;1.502;2023-09-07T06:34:20;6.70;;;2.93;;
78871;SDS011;68247;43.514;1.502;2023-09-07T06:36:45;6.18;;;2.75;;
78871;SDS011;68247;43.514;1.502;2023-09-07T06:39:10;4.30;;;2.63;;
78871;SDS011;68247;43.514;1.502;2023-09-07T06:41:36;5.30;;;2.57;;
78871;SDS011;68247;43.514;1.502;2023-09-07T06:44:01;4.93;;;2.70;;
78871;SDS011;68247;43.514;1.502;2023-09-07T06:46:27;7.53;;;2.80;;
78871;SDS011;68247;43.514;1.502;2023-09-07T06:48:52;7.17;;;2.73;;
78871;SDS011;68247;43.514;1.502;2023-09-07T06:51:18;5.00;;;2.93;;
78871;SDS011;68247;43.514;1.502;2023-09-07T06:53:43;5.47;;;3.00;;
78871;SDS011;68247;43.514;1.502;2023-09-07T06:56:08;6.73;;;2.80;;
78871;SDS011;68247;43.514;1.502;2023-09-07T06:58:35;5.03;;;2.60;;
78871;SDS011;68247;43.514;1.502;2023-09-07T07:01:00;7.47;;;2.95;;
78871;SDS011;68247;43.514;1.502;2023-09-07T07:03:28;6.30;;;2.60;;
78871;SDS011;68247;43.514;1.502;2023-09-07T07:05:54;6.80;;;2.75;;
78871;SDS011;68247;43.514;1.502;2023-09-07T07:08:21;8.52;;;3.00;;
78871;SDS011;68247;43.514;1.502;2023-09-07T07:10:46;5.90;;;3.13;;
78871;SDS011;68247;43.514;1.502;2023-09-07T07:13:12;6.70;;;3.00;;
78871;SDS011;68247;43.514;1.502;2023-09-07T07:15:37;4.83;;;2.60;;
78871;SDS011;68247;43.514;1.502;2023-09-07T07:18:03;5.40;;;2.80;;
78871;SDS011;68247;43.514;1.502;2023-09-07T07:20:37;5.33;;;2.80;;
78871;SDS011;68247;43.514;1.502;2023-09-07T07:23:03;5.47;;;2.85;;
78871;SDS011;68247;43.514;1.502;2023-09-07T07:25:30;6.32;;;3.03;;
78871;SDS011;68247;43.514;1.502;2023-09-07T07:27:58;5.65;;;2.78;;
78871;SDS011;68247;43.514;1.502;2023-09-07T07:30:30;8.88;;;2.95;;
78871;SDS011;68247;43.514;1.502;2023-09-07T07:32:56;8.57;;;3.10;;
78871;SDS011;68247;43.514;1.502;2023-09-07T07:35:21;4.67;;;2.80;;
78871;SDS011;68247;43.514;1.502;2023-09-07T07:37:48;6.78;;;2.90;;
78871;SDS011;68247;43.514;1.502;2023-09-07T07:40:14;5.43;;;3.08;;
78871;SDS011;68247;43.514;1.502;2023-09-07T07:42:39;6.47;;;2.80;;
78871;SDS011;68247;43.514;1.502;2023-09-07T07:45:05;4.95;;;2.85;;
78871;SDS011;68247;43.514;1.502;2023-09-07T07:47:31;6.38;;;3.33;;
78871;SDS011;68247;43.514;1.502;2023-09-07T07:49:56;7.83;;;3.30;;
78871;SDS011;68247;43.514;1.502;2023-09-07T07:52:22;8.00;;;3.23;;
78871;SDS011;68247;43.514;1.502;2023-09-07T07:54:47;5.47;;;2.90;;
78871;SDS011;68247;43.514;1.502;2023-09-07T07:57:13;5.37;;;2.73;;
78871;SDS011;68247;43.514;1.502;2023-09-07T07:59:38;4.82;;;2.92;;
78871;SDS011;68247;43.514;1.502;2023-09-07T08:02:04;6.00;;;2.97;;
78871;SDS011;68247;43.514;1.502;2023-09-07T08:04:31;5.47;;;3.08;;
78871;SDS011;68247;43.514;1.502;2023-09-07T08:06:57;5.23;;;2.80;;
78871;SDS011;68247;43.514;1.502;2023-09-07T08:09:24;5.22;;;2.50;;
78871;SDS011;68247;43.514;1.502;2023-09-07T08:11:50;5.47;;;3.00;;
78871;SDS011;68247;43.514;1.502;2023-09-07T08:14:16;6.95;;;2.90;;
78871;SDS011;68247;43.514;1.502;2023-09-07T08:16:41;7.50;;;3.20;;
78871;SDS011;68247;43.514;1.502;2023-09-07T08:19:07;6.40;;;3.00;;
78871;SDS011;68247;43.514;1.502;2023-09-07T08:21:32;5.77;;;3.00;;
78871;SDS011;68247;43.514;1.502;2023-09-07T08:23:58;6.13;;;3.00;;
78871;SDS011;68247;43.514;1.502;2023-09-07T08:26:25;4.33;;;2.70;;
78871;SDS011;68247;43.514;1.502;2023-09-07T08:28:50;6.90;;;2.60;;
78871;SDS011;68247;43.514;1.502;2023-09-07T08:31:15;7.13;;;2.70;;
78871;SDS011;68247;43.514;1.502;2023-09-07T08:33:46;6.50;;;2.90;;
78871;SDS011;68247;43.514;1.502;2023-09-07T08:36:15;5.50;;;2.57;;
78871;SDS011;68247;43.514;1.502;2023-09-07T08:38:42;5.93;;;2.83;;
78871;SDS011;68247;43.514;1.502;2023-09-07T08:41:07;6.47;;;2.78;;
78871;SDS011;68247;43.514;1.502;2023-09-07T08:43:33;4.87;;;2.53;;
78871;SDS011;68247;43.514;1.502;2023-09-07T08:46:37;5.82;;;2.80;;
78871;SDS011;68247;43.514;1.502;2023-09-07T08:48:55;5.25;;;2.90;;
78871;SDS011;68247;43.514;1.502;2023-09-07T08:51:24;6.73;;;2.40;;
78871;SDS011;68247;43.514;1.502;2023-09-07T08:53:52;6.75;;;2.60;;
78871;SDS011;68247;43.514;1.502;2023-09-07T08:56:18;5.10;;;2.70;;
78871;SDS011;68247;43.514;1.502;2023-09-07T08:58:44;4.50;;;2.77;;
78871;SDS011;68247;43.514;1.502;2023-09-07T09:01:14;7.10;;;2.67;;
78871;SDS011;68247;43.514;1.502;2023-09-07T09:03:41;4.80;;;2.80;;
78871;SDS011;68247;43.514;1.502;2023-09-07T09:06:07;7.97;;;2.93;;
78871;SDS011;68247;43.514;1.502;2023-09-07T09:08:43;7.45;;;3.00;;
78871;SDS011;68247;43.514;1.502;2023-09-07T09:11:08;6.75;;;2.75;;
78871;SDS011;68247;43.514;1.502;2023-09-07T09:13:34;4.40;;;2.10;;
78871;SDS011;68247;43.514;1.502;2023-09-07T09:15:59;5.60;;;2.60;;
78871;SDS011;68247;43.514;1.502;2023-09-07T09:18:28;6.43;;;2.58;;
78871;SDS011;68247;43.514;1.502;2023-09-07T09:20:54;6.47;;;2.50;;
78871;SDS011;68247;43.514;1.502;2023-09-07T09:23:20;5.67;;;2.60;;
78871;SDS011;68247;43.514;1.502;2023-09-07T09:25:47;6.32;;;2.92;;
78871;SDS011;68247;43.514;1.502;2023-09-07T09:28:13;6.07;;;3.00;;
78871;SDS011;68247;43.514;1.502;2023-09-07T09:30:39;4.30;;;2.80;;
78871;SDS011;68247;43.514;1.502;2023-09-07T09:33:05;5.05;;;2.65;;
78871;SDS011;68247;43.514;1.502;2023-09-07T09:35:31;6.97;;;2.90;;
78871;SDS011;68247;43.514;1.502;2023-09-07T09:38:00;5.60;;;2.97;;
78871;SDS011;68247;43.514;1.502;2023-09-07T09:40:29;3.97;;;2.10;;
78871;SDS011;68247;43.514;1.502;2023-09-07T09:42:55;5.03;;;2.50;;
78871;SDS011;68247;43.514;1.502;2023-09-07T09:45:21;6.78;;;3.03;;
78871;SDS011;68247;43.514;1.502;2023-09-07T09:47:47;4.72;;;2.25;;
78871;SDS011;68247;43.514;1.502;2023-09-07T09:50:14;6.23;;;2.90;;
78871;SDS011;68247;43.514;1.502;2023-09-07T09:52:41;5.18;;;2.63;;
78871;SDS011;68247;43.514;1.502;2023-09-07T09:55:07;5.53;;;2.80;;
78871;SDS011;68247;43.514;1.502;2023-09-07T09:57:34;6.15;;;2.95;;
78871;SDS011;68247;43.514;1.502;2023-09-07T10:00:00;5.25;;;2.95;;
78871;SDS011;68247;43.514;1.502;2023-09-07T10:02:35;5.53;;;3.00;;
78871;SDS011;68247;43.514;1.502;2023-09-07T10:05:02;5.22;;;2.90;;
78871;SDS011;68247;43.514;1.502;2023-09-07T10:07:42;7.10;;;2.70;;
78871;SDS011;68247;43.514;1.502;2023-09-07T10:10:14;7.57;;;3.13;;
78871;SDS011;68247;43.514;1.502;2023-09-07T10:12:44;4.35;;;2.83;;
78871;SDS011;68247;43.514;1.502;2023-09-07T10:15:44;6.03;;;2.70;;
78871;SDS011;68247;43.514;1.502;2023-09-07T10:23:20;7.55;;;3.15;;
78871;SDS011;68247;43.514;1.502;2023-09-07T10:25:47;4.85;;;3.30;;
78871;SDS011;68247;43.514;1.502;2023-09-07T10:28:24;5.40;;;2.75;;
78871;SDS011;68247;43.514;1.502;2023-09-07T10:31:03;6.85;;;2.70;;
78871;SDS011;68247;43.514;1.502;2023-09-07T10:33:33;5.60;;;2.90;;
78871;SDS011;68247;43.514;1.502;2023-09-07T10:36:01;6.32;;;2.78;;
78871;SDS011;68247;43.514;1.502;2023-09-07T10:38:28;5.63;;;3.10;;
78871;SDS011;68247;43.514;1.502;2023-09-07T10:40:56;6.80;;;3.10;;
78871;SDS011;68247;43.514;1.502;2023-09-07T10:43:25;7.40;;;2.80;;
78871;SDS011;68247;43.514;1.502;2023-09-07T10:45:52;7.82;;;3.30;;
78871;SDS011;68247;43.514;1.502;2023-09-07T10:48:19;5.32;;;2.92;;
78871;SDS011;68247;43.514;1.502;2023-09-07T10:50:45;6.07;;;3.20;;
78871;SDS011;68247;43.514;1.502;2023-09-07T10:53:11;4.80;;;3.10;;
78871;SDS011;68247;43.514;1.502;2023-09-07T10:55:40;5.15;;;3.17;;
78871;SDS011;68247;43.514;1.502;2023-09-07T10:58:09;4.43;;;3.20;;
78871;SDS011;68247;43.514;1.502;2023-09-07T11:00:35;5.23;;;3.10;;
78871;SDS011;68247;43.514;1.502;2023-09-07T11:03:09;10.48;;;3.80;;
78871;SDS011;68247;43.514;1.502;2023-09-07T11:05:36;6.63;;;3.25;;
78871;SDS011;68247;43.514;1.502;2023-09-07T11:08:03;6.13;;;3.47;;
78871;SDS011;68247;43.514;1.502;2023-09-07T11:10:32;5.25;;;3.28;;
78871;SDS011;68247;43.514;1.502;2023-09-07T11:13:01;7.13;;;3.42;;
78871;SDS011;68247;43.514;1.502;2023-09-07T11:15:27;5.05;;;3.45;;
78871;SDS011;68247;43.514;1.502;2023-09-07T11:17:54;5.07;;;3.20;;
78871;SDS011;68247;43.514;1.502;2023-09-07T11:20:21;4.87;;;3.30;;
78871;SDS011;68247;43.514;1.502;2023-09-07T11:22:46;6.53;;;3.30;;
78871;SDS011;68247;43.514;1.502;2023-09-07T11:25:12;4.77;;;3.50;;
78871;SDS011;68247;43.514;1.502;2023-09-07T11:27:39;6.33;;;3.80;;
78871;SDS011;68247;43.514;1.502;2023-09-07T11:30:04;6.10;;;3.33;;
78871;SDS011;68247;43.514;1.502;2023-09-07T11:32:33;5.55;;;3.40;;
78871;SDS011;68247;43.514;1.502;2023-09-07T11:34:59;5.20;;;3.47;;
78871;SDS011;68247;43.514;1.502;2023-09-07T11:37:25;6.63;;;3.75;;
78871;SDS011;68247;43.514;1.502;2023-09-07T11:39:51;6.77;;;3.53;;
78871;SDS011;68247;43.514;1.502;2023-09-07T11:42:16;5.70;;;4.00;;
78871;SDS011;68247;43.514;1.502;2023-09-07T11:44:42;5.50;;;3.77;;
78871;SDS011;68247;43.514;1.502;2023-09-07T11:47:07;6.57;;;3.93;;
78871;SDS011;68247;43.514;1.502;2023-09-07T11:49:33;5.78;;;3.60;;
78871;SDS011;68247;43.514;1.502;2023-09-07T11:51:58;5.30;;;3.60;;
78871;SDS011;68247;43.514;1.502;2023-09-07T11:54:24;5.77;;;3.70;;
78871;SDS011;68247;43.514;1.502;2023-09-07T11:56:49;5.50;;;3.80;;
78871;SDS011;68247;43.514;1.502;2023-09-07T11:59:15;7.77;;;3.50;;
78871;SDS011;68247;43.514;1.502;2023-09-07T12:01:43;5.43;;;3.67;;
78871;SDS011;68247;43.514;1.502;2023-09-07T12:04:09;6.37;;;3.90;;
78871;SDS011;68247;43.514;1.502;2023-09-07T12:06:34;7.25;;;3.72;;
78871;SDS011;68247;43.514;1.502;2023-09-07T12:09:03;6.90;;;3.40;;
78871;SDS011;68247;43.514;1.502;2023-09-07T12:11:30;6.25;;;3.55;;
78871;SDS011;68247;43.514;1.502;2023-09-07T12:13:58;5.93;;;3.78;;
78871;SDS011;68247;43.514;1.502;2023-09-07T12:16:27;5.77;;;3.77;;
78871;SDS011;68247;43.514;1.502;2023-09-07T12:18:53;6.38;;;3.58;;
78871;SDS011;68247;43.514;1.502;2023-09-07T12:21:19;8.15;;;4.10;;
78871;SDS011;68247;43.514;1.502;2023-09-07T12:23:44;5.83;;;3.50;;
78871;SDS011;68247;43.514;1.502;2023-09-07T12:26:10;5.25;;;3.67;;
78871;SDS011;68247;43.514;1.502;2023-09-07T12:28:35;5.17;;;3.50;;
78871;SDS011;68247;43.514;1.502;2023-09-07T12:31:01;5.50;;;4.00;;
78871;SDS011;68247;43.514;1.502;2023-09-07T12:33:26;7.30;;;3.77;;
78871;SDS011;68247;43.514;1.502;2023-09-07T12:35:55;7.10;;;3.50;;
78871;SDS011;68247;43.514;1.502;2023-09-07T12:38:20;6.50;;;3.73;;
78871;SDS011;68247;43.514;1.502;2023-09-07T12:40:47;5.32;;;3.40;;
78871;SDS011;68247;43.514;1.502;2023-09-07T12:43:12;7.53;;;3.60;;
78871;SDS011;68247;43.514;1.502;2023-09-07T12:45:38;6.60;;;3.53;;
78871;SDS011;68247;43.514;1.502;2023-09-07T12:48:03;6.10;;;3.87;;
78871;SDS011;68247;43.514;1.502;2023-09-07T12:50:29;5.05;;;3.63;;
78871;SDS011;68247;43.514;1.502;2023-09-07T12:52:54;7.20;;;3.67;;
78871;SDS011;68247;43.514;1.502;2023-09-07T12:55:20;5.57;;;3.70;;
78871;SDS011;68247;43.514;1.502;2023-09-07T12:57:45;5.90;;;3.60;;
78871;SDS011;68247;43.514;1.502;2023-09-07T13:00:11;6.03;;;3.60;;
78871;SDS011;68247;43.514;1.502;2023-09-07T13:02:37;4.32;;;3.35;;
78871;SDS011;68247;43.514;1.502;2023-09-07T13:05:03;5.87;;;3.77;;
78871;SDS011;68247;43.514;1.502;2023-09-07T13:07:30;5.53;;;3.55;;
78871;SDS011;68247;43.514;1.502;2023-09-07T13:09:57;6.97;;;4.10;;
78871;SDS011;68247;43.514;1.502;2023-09-07T13:12:23;5.90;;;3.70;;
78871;SDS011;68247;43.514;1.502;2023-09-07T13:14:48;6.45;;;3.83;;
78871;SDS011;68247;43.514;1.502;2023-09-07T13:17:14;6.50;;;3.77;;
78871;SDS011;68247;43.514;1.502;2023-09-07T13:19:39;4.20;;;3.77;;
78871;SDS011;68247;43.514;1.502;2023-09-07T13:22:05;5.57;;;3.75;;
78871;SDS011;68247;43.514;1.502;2023-09-07T13:24:32;7.28;;;4.07;;
78871;SDS011;68247;43.514;1.502;2023-09-07T13:26:58;7.83;;;4.00;;
78871;SDS011;68247;43.514;1.502;2023-09-07T13:29:23;7.07;;;3.90;;
78871;SDS011;68247;43.514;1.502;2023-09-07T13:31:51;7.47;;;4.10;;
78871;SDS011;68247;43.514;1.502;2023-09-07T13:34:18;6.20;;;4.18;;
78871;SDS011;68247;43.514;1.502;2023-09-07T13:36:44;4.70;;;3.67;;
78871;SDS011;68247;43.514;1.502;2023-09-07T13:39:10;6.67;;;3.97;;
78871;SDS011;68247;43.514;1.502;2023-09-07T13:41:35;5.67;;;4.03;;
78871;SDS011;68247;43.514;1.502;2023-09-07T13:44:01;7.77;;;4.47;;
78871;SDS011;68247;43.514;1.502;2023-09-07T13:46:26;5.22;;;3.85;;
78871;SDS011;68247;43.514;1.502;2023-09-07T13:48:52;5.17;;;3.73;;
78871;SDS011;68247;43.514;1.502;2023-09-07T13:51:17;7.22;;;3.80;;
78871;SDS011;68247;43.514;1.502;2023-09-07T13:53:43;7.40;;;3.80;;
78871;SDS011;68247;43.514;1.502;2023-09-07T13:56:08;6.37;;;3.53;;
78871;SDS011;68247;43.514;1.502;2023-09-07T13:58:33;5.07;;;3.67;;
78871;SDS011;68247;43.514;1.502;2023-09-07T14:00:59;8.10;;;3.20;;
78871;SDS011;68247;43.514;1.502;2023-09-07T14:03:24;10.15;;;3.92;;
78871;SDS011;68247;43.514;1.502;2023-09-07T14:05:50;5.20;;;3.40;;
78871;SDS011;68247;43.514;1.502;2023-09-07T14:08:15;5.37;;;3.83;;
78871;SDS011;68247;43.514;1.502;2023-09-07T14:10:40;5.53;;;3.30;;
78871;SDS011;68247;43.514;1.502;2023-09-07T14:13:06;5.25;;;3.67;;
78871;SDS011;68247;43.514;1.502;2023-09-07T14:15:31;9.97;;;3.60;;
78871;SDS011;68247;43.514;1.502;2023-09-07T14:17:57;4.70;;;3.47;;
78871;SDS011;68247;43.514;1.502;2023-09-07T14:20:22;6.10;;;3.70;;
78871;SDS011;68247;43.514;1.502;2023-09-07T14:22:48;5.40;;;3.75;;
78871;SDS011;68247;43.514;1.502;2023-09-07T14:25:13;4.90;;;3.97;;
78871;SDS011;68247;43.514;1.502;2023-09-07T14:27:41;5.60;;;3.67;;
78871;SDS011;68247;43.514;1.502;2023-09-07T14:30:06;5.60;;;3.80;;
78871;SDS011;68247;43.514;1.502;2023-09-07T14:32:32;5.10;;;3.58;;
78871;SDS011;68247;43.514;1.502;2023-09-07T14:34:58;7.03;;;3.83;;
78871;SDS011;68247;43.514;1.502;2023-09-07T14:37:23;5.40;;;3.63;;
78871;SDS011;68247;43.514;1.502;2023-09-07T14:39:49;4.37;;;3.70;;
78871;SDS011;68247;43.514;1.502;2023-09-07T14:42:15;4.50;;;3.90;;
78871;SDS011;68247;43.514;1.502;2023-09-07T14:44:42;4.38;;;3.78;;
78871;SDS011;68247;43.514;1.502;2023-09-07T14:47:09;5.00;;;3.92;;
78871;SDS011;68247;43.514;1.502;2023-09-07T14:49:35;4.55;;;4.07;;